Parker, ID (83438)

5:50 AM MST on November 23, 2017 (GMT -0700)
Parker | | Change Station

Elev 4986 ft 43.95 °N, 111.76 °W | Updated 12 minutes ago

Overcast
Overcast
34.9 °F
Feels Like 35 °F
N
2.2
Wind Variable Wind from East

Today
High -- | Low -- °F
--% Chance of Precip.
Yesterday
High -- | Low -- °F
Precip. -- in
Pressure 30.27 in
Visibility 10.0 miles
Clouds Clear
Windchill 35 °F
Dew Point 35 °F
Humidity 99%
Rainfall 0.00 in
Snow Depth Not available.
7:32 AM 4:54 PM
Waxing Crescent, 21% visible
METAR KRXE 231153Z AUTO 06004KT 10SM CLR 01/01 A3025 RMK AO2 SLP251 T00110006 10022 20006 57010
Pressure 30.27 in
Visibility 10.0 miles
Clouds Clear
Windchill 35 °F
Dew Point 35 °F
Humidity 99%
Rainfall 0.00 in
Snow Depth Not available.
7:32 AM 4:54 PM
Waxing Crescent, 21% visible
METAR KRXE 231153Z AUTO 06004KT 10SM CLR 01/01 A3025 RMK AO2 SLP251 T00110006 10022 20006 57010

Get Severe Weather Alerts

Thanks for signing up!

Be on the lookout for a verification email in your inbox.

You'll start receiving the daily forecast at 6 AM.

×

10-Day Weather Forecast

Almanac

Astronomy

Nov. 23, 2017 Rise Set
Actual Time
Civil Twilight
Nautical Twilight
Astronomical Twilight
Moon
Length of Visible Light
Length of Day
Tomorrow will be .
, % of the Moon is Illuminated

Today's Extremes

State Highs State Lows

Community

WunderPhotos

Category 6

Welcome to Category 6. This is the collective home for Weather Underground's featured writeups by Dr. Jeff Masters (right), Bob Henson (left), Chris Burt, and other regular contributors.

Nearby

Air Quality

  Air Quality AQ Index Pollutant
Not available.

Snow Depth

Station Depth Elevation

Earthquake Activity

City Distance Mag. Time & Date
Minimum magnitude displayed is 2.5.

Coastal Water Temperatures

Place Temperature

Stations

Nearby Weather Stations

Station Location Temp. Windchill Dew Point Humidity Wind Precip. Elev Updated Type
                   

Watches & Warnings

There are currently no watches in effect.